Time;durP1;ratioP1;P1;durP2;ratioP2;P2;SDS_P1;SDS_P2;PMS_P1;PMS_P2;Temp;Humidity;BMP_temperature;BMP_pressure;BME280_temperature;BME280_humidity;BME280_pressure;Samples;Min_cycle;Max_cycle;Signal;HPM_P1;HPM_P2
2023/08/28 00:01:38;;;;;;;7.13;5.30;;;;;;;;;;4979245;28;20580;-86
2023/08/28 00:04:05;;;;;;;5.88;4.28;;;;;;;;;;4979145;28;20050;-86
2023/08/28 00:06:33;;;;;;;5.53;4.82;;;;;;;;;;4996129;28;20046;-85
2023/08/28 00:09:00;;;;;;;4.95;4.45;;;;;;;;;;4996491;28;20056;-86
2023/08/28 00:11:27;;;;;;;6.88;6.18;;;;;;;;;;4978933;28;20104;-86
2023/08/28 00:13:54;;;;;;;4.72;4.32;;;;;;;;;;4979104;28;20050;-86
2023/08/28 00:16:22;;;;;;;5.93;4.95;;;;;;;;;;4995774;28;20156;-85
2023/08/28 00:18:49;;;;;;;5.20;4.78;;;;;;;;;;4978955;28;20125;-85
2023/08/28 00:21:16;;;;;;;4.63;4.15;;;;;;;;;;4995872;28;20054;-86
2023/08/28 00:23:43;;;;;;;7.00;4.82;;;;;;;;;;4995735;28;20093;-86
2023/08/28 00:26:13;;;;;;;5.22;4.60;;;;;;;;;;4978859;28;20054;-86
2023/08/28 00:28:40;;;;;;;4.72;4.28;;;;;;;;;;4977952;28;20050;-85
2023/08/28 00:31:08;;;;;;;4.60;4.30;;;;;;;;;;4979004;28;20050;-87
2023/08/28 00:33:35;;;;;;;5.55;4.82;;;;;;;;;;4978969;28;20499;-86
2023/08/28 00:36:02;;;;;;;6.75;4.68;;;;;;;;;;4995915;28;20073;-86
2023/08/28 00:38:30;;;;;;;5.57;4.93;;;;;;;;;;4978496;28;20463;-86
2023/08/28 00:40:57;;;;;;;6.50;4.32;;;;;;;;;;4978540;28;20077;-86
2023/08/28 00:43:25;;;;;;;4.57;4.18;;;;;;;;;;4978175;28;20466;-86
2023/08/28 00:45:52;;;;;;;4.13;3.92;;;;;;;;;;4978526;28;20133;-86
2023/08/28 00:48:20;;;;;;;4.93;4.50;;;;;;;;;;4978485;28;20498;-86
2023/08/28 00:50:48;;;;;;;4.57;4.28;;;;;;;;;;4978219;28;20094;-86
2023/08/28 00:53:16;;;;;;;4.75;3.92;;;;;;;;;;4978347;28;20388;-86
2023/08/28 00:55:43;;;;;;;4.90;4.38;;;;;;;;;;4978171;28;20058;-86
2023/08/28 00:58:11;;;;;;;5.50;3.85;;;;;;;;;;4978438;28;20047;-86
2023/08/28 01:00:38;;;;;;;5.20;3.97;;;;;;;;;;4978418;28;20046;-86
2023/08/28 01:03:05;;;;;;;6.78;4.03;;;;;;;;;;4978172;28;20046;-86
2023/08/28 01:05:41;;;;;;;3.90;3.70;;;;;;;;;;4977646;28;20058;-86
2023/08/28 01:08:13;;;;;;;4.63;4.22;;;;;;;;;;4978089;28;20089;-86
2023/08/28 01:10:45;;;;;;;5.30;4.75;;;;;;;;;;4978143;28;20046;-87
2023/08/28 01:13:17;;;;;;;13.48;4.88;;;;;;;;;;4995045;28;20073;-86
2023/08/28 01:15:45;;;;;;;5.30;4.57;;;;;;;;;;4977991;28;20074;-86
2023/08/28 01:18:12;;;;;;;5.45;4.95;;;;;;;;;;4977635;28;20054;-85
2023/08/28 01:20:40;;;;;;;5.43;4.93;;;;;;;;;;4994888;28;20085;-86
2023/08/28 01:23:26;;;;;;;5.13;4.72;;;;;;;;;;4994952;28;20055;-86
2023/08/28 01:25:53;;;;;;;6.47;5.88;;;;;;;;;;4977488;28;20109;-87
2023/08/28 01:28:21;;;;;;;8.80;6.53;;;;;;;;;;4977619;28;20105;-86
2023/08/28 01:30:48;;;;;;;7.72;5.10;;;;;;;;;;4994570;28;20053;-86
2023/08/28 01:33:16;;;;;;;6.43;4.82;;;;;;;;;;4977580;28;20046;-87
2023/08/28 01:35:46;;;;;;;4.28;3.90;;;;;;;;;;4977474;28;20109;-87
2023/08/28 01:38:40;;;;;;;7.70;3.90;;;;;;;;;;4977546;28;20085;-86
2023/08/28 01:41:08;;;;;;;4.38;2.90;;;;;;;;;;4973374;28;20081;-86
2023/08/28 01:43:37;;;;;;;5.90;3.33;;;;;;;;;;4977275;28;20113;-87
2023/08/28 01:46:05;;;;;;;3.85;3.55;;;;;;;;;;4976980;28;20050;-87
2023/08/28 01:48:36;;;;;;;4.47;3.55;;;;;;;;;;4977493;28;20137;-87
2023/08/28 01:51:03;;;;;;;4.22;3.42;;;;;;;;;;4977415;28;20050;-89
2023/08/28 01:53:31;;;;;;;3.40;3.10;;;;;;;;;;4994271;28;20054;-87
2023/08/28 01:56:15;;;;;;;4.22;3.83;;;;;;;;;;4977186;28;20050;-87
2023/08/28 01:58:44;;;;;;;5.63;3.63;;;;;;;;;;4977515;28;20078;-87
2023/08/28 02:01:11;;;;;;;4.57;3.20;;;;;;;;;;4977395;28;20487;-87
2023/08/28 02:03:39;;;;;;;6.78;3.40;;;;;;;;;;4994192;28;20101;-87
2023/08/28 02:06:07;;;;;;;3.55;3.35;;;;;;;;;;4993946;28;20054;-88
2023/08/28 02:08:34;;;;;;;3.20;3.00;;;;;;;;;;4994288;28;20133;-87
2023/08/28 02:11:01;;;;;;;3.58;3.28;;;;;;;;;;4993803;28;20490;-86
2023/08/28 02:13:29;;;;;;;3.63;3.20;;;;;;;;;;4993881;28;20533;-86
2023/08/28 02:15:56;;;;;;;4.25;3.85;;;;;;;;;;4977036;28;20117;-86
2023/08/28 02:18:23;;;;;;;6.80;3.90;;;;;;;;;;4976768;28;20107;-86
2023/08/28 02:20:53;;;;;;;3.90;3.60;;;;;;;;;;4994343;28;20134;-87
2023/08/28 02:23:20;;;;;;;6.45;3.67;;;;;;;;;;4998609;28;20469;-87
2023/08/28 02:25:48;;;;;;;4.65;3.78;;;;;;;;;;4994211;28;20138;-87
2023/08/28 02:28:19;;;;;;;8.27;4.30;;;;;;;;;;4998954;28;20051;-87
2023/08/28 02:30:46;;;;;;;4.38;3.58;;;;;;;;;;4993780;28;20046;-86
2023/08/28 02:33:14;;;;;;;7.38;3.83;;;;;;;;;;4977159;28;20146;-87
2023/08/28 02:35:41;;;;;;;5.35;3.10;;;;;;;;;;4993975;28;20050;-88
2023/08/28 02:38:10;;;;;;;5.90;3.10;;;;;;;;;;4976868;28;20503;-88
2023/08/28 02:40:38;;;;;;;4.38;3.40;;;;;;;;;;4976848;28;20149;-87
2023/08/28 02:43:06;;;;;;;5.20;3.28;;;;;;;;;;4977345;28;20086;-87
2023/08/28 02:45:34;;;;;;;7.72;3.65;;;;;;;;;;4993899;28;20093;-87
2023/08/28 02:48:03;;;;;;;3.38;3.10;;;;;;;;;;4976702;28;20129;-89
2023/08/28 02:50:31;;;;;;;4.32;3.92;;;;;;;;;;4976652;28;20406;-88
2023/08/28 02:52:58;;;;;;;4.15;3.42;;;;;;;;;;4979649;28;20150;-87
2023/08/28 02:55:26;;;;;;;5.93;4.25;;;;;;;;;;4980231;28;20074;-87
2023/08/28 02:57:54;;;;;;;3.88;3.58;;;;;;;;;;4997310;28;20145;-87
2023/08/28 03:00:21;;;;;;;3.60;3.30;;;;;;;;;;4979827;28;20461;-88
2023/08/28 03:02:48;;;;;;;4.25;3.65;;;;;;;;;;4997317;28;20444;-89
2023/08/28 03:05:16;;;;;;;4.60;3.55;;;;;;;;;;4997092;28;20068;-87
2023/08/28 03:07:43;;;;;;;6.80;4.20;;;;;;;;;;4997221;28;20055;-87
2023/08/28 03:10:11;;;;;;;6.28;4.03;;;;;;;;;;4997480;28;20112;-87
2023/08/28 03:12:38;;;;;;;5.15;4.28;;;;;;;;;;4980740;28;20141;-87
2023/08/28 03:15:05;;;;;;;6.35;4.22;;;;;;;;;;5001590;28;20069;-88
2023/08/28 03:17:32;;;;;;;4.95;4.55;;;;;;;;;;4996888;28;20550;-89
2023/08/28 03:20:02;;;;;;;5.65;4.88;;;;;;;;;;4980108;28;20100;-88
2023/08/28 03:22:29;;;;;;;4.32;4.00;;;;;;;;;;4979828;28;20058;-89
2023/08/28 03:24:56;;;;;;;4.50;3.88;;;;;;;;;;4979697;28;20120;-88
2023/08/28 03:27:24;;;;;;;3.58;3.33;;;;;;;;;;4995329;28;20136;-89
2023/08/28 03:29:51;;;;;;;5.55;3.92;;;;;;;;;;4979870;28;20101;-88
2023/08/28 03:32:19;;;;;;;5.35;3.63;;;;;;;;;;4979674;28;20054;-89
2023/08/28 03:34:46;;;;;;;3.78;3.08;;;;;;;;;;4979780;28;20462;-88
2023/08/28 03:37:13;;;;;;;5.90;2.95;;;;;;;;;;4996361;28;20058;-89
2023/08/28 03:39:41;;;;;;;4.45;3.83;;;;;;;;;;4979434;28;20042;-88
2023/08/28 03:42:08;;;;;;;3.50;3.30;;;;;;;;;;4979330;28;20077;-88
2023/08/28 03:44:35;;;;;;;4.68;4.20;;;;;;;;;;4979383;28;20477;-88
2023/08/28 03:47:03;;;;;;;5.05;4.60;;;;;;;;;;4979255;28;20050;-88
2023/08/28 03:49:30;;;;;;;6.30;4.32;;;;;;;;;;4979493;28;20050;-88
2023/08/28 03:51:59;;;;;;;4.75;3.53;;;;;;;;;;4979512;28;20148;-88
2023/08/28 03:54:28;;;;;;;5.30;3.85;;;;;;;;;;4979343;28;20493;-88
2023/08/28 03:56:55;;;;;;;4.22;3.90;;;;;;;;;;4979118;28;20133;-88
2023/08/28 03:59:23;;;;;;;4.18;3.88;;;;;;;;;;4979196;28;20069;-89
2023/08/28 04:01:54;;;;;;;4.35;4.00;;;;;;;;;;4979829;28;20046;-89
2023/08/28 04:04:22;;;;;;;4.18;3.50;;;;;;;;;;4963874;28;20398;-89
2023/08/28 04:06:50;;;;;;;5.35;3.58;;;;;;;;;;4979152;28;20074;-89
2023/08/28 04:09:17;;;;;;;4.00;3.70;;;;;;;;;;4978683;28;20073;-85
2023/08/28 04:11:44;;;;;;;5.75;3.22;;;;;;;;;;4979158;28;20462;-88
2023/08/28 04:14:11;;;;;;;3.90;3.60;;;;;;;;;;4979078;28;20046;-89
2023/08/28 04:16:39;;;;;;;6.53;3.85;;;;;;;;;;4978781;28;20079;-89
2023/08/28 04:19:07;;;;;;;5.93;4.18;;;;;;;;;;4995978;28;20073;-89
2023/08/28 04:21:38;;;;;;;5.05;4.60;;;;;;;;;;4979358;28;20046;-89
2023/08/28 04:24:07;;;;;;;4.75;4.32;;;;;;;;;;4995763;28;20050;-89
2023/08/28 04:26:34;;;;;;;4.15;3.85;;;;;;;;;;4995712;28;20467;-88
2023/08/28 04:29:02;;;;;;;4.43;4.03;;;;;;;;;;4978689;28;20046;-88
2023/08/28 04:31:30;;;;;;;4.93;3.95;;;;;;;;;;4978657;28;20054;-88
2023/08/28 04:33:57;;;;;;;4.82;3.63;;;;;;;;;;4978602;28;20138;-89
2023/08/28 04:36:24;;;;;;;5.38;3.60;;;;;;;;;;4978451;28;20081;-88
2023/08/28 04:38:51;;;;;;;4.82;4.38;;;;;;;;;;4995765;28;20046;-88
2023/08/28 04:41:19;;;;;;;4.72;3.90;;;;;;;;;;4995412;28;20047;-88
2023/08/28 04:43:46;;;;;;;8.02;4.72;;;;;;;;;;4978014;28;20055;-88
2023/08/28 04:46:13;;;;;;;11.38;5.38;;;;;;;;;;4977912;28;20459;-88
2023/08/28 04:48:40;;;;;;;5.80;4.75;;;;;;;;;;4978436;28;20384;-89
2023/08/28 04:51:08;;;;;;;5.60;4.50;;;;;;;;;;4995301;28;20526;-88
2023/08/28 04:53:35;;;;;;;5.35;4.80;;;;;;;;;;4978216;28;20050;-88
2023/08/28 04:56:03;;;;;;;8.25;7.45;;;;;;;;;;4978442;28;20050;-88
2023/08/28 04:58:30;;;;;;;18.42;14.75;;;;;;;;;;4978212;28;20054;-88
2023/08/28 05:00:58;;;;;;;17.23;12.10;;;;;;;;;;4978183;28;20059;-88
2023/08/28 05:03:25;;;;;;;13.40;10.23;;;;;;;;;;4978032;28;20057;-88
2023/08/28 05:05:53;;;;;;;32.45;22.30;;;;;;;;;;4978369;28;20085;-88
2023/08/28 05:08:21;;;;;;;21.80;15.57;;;;;;;;;;4995542;28;20053;-88
2023/08/28 05:10:48;;;;;;;22.27;15.23;;;;;;;;;;4978241;28;20054;-88
2023/08/28 05:13:15;;;;;;;11.20;6.88;;;;;;;;;;4994759;28;20137;-88
2023/08/28 05:15:43;;;;;;;6.10;4.97;;;;;;;;;;4978385;28;20073;-88
2023/08/28 05:18:13;;;;;;;8.63;6.85;;;;;;;;;;4989341;28;20498;-87
2023/08/28 05:20:42;;;;;;;9.95;8.38;;;;;;;;;;4985356;28;20047;-88
2023/08/28 05:23:24;;;;;;;6.35;5.85;;;;;;;;;;4979091;28;20050;-88
2023/08/28 05:25:55;;;;;;;11.32;8.00;;;;;;;;;;4977543;28;20461;-88
2023/08/28 05:28:23;;;;;;;12.50;8.52;;;;;;;;;;4977474;28;20053;-87
2023/08/28 05:30:50;;;;;;;11.38;8.82;;;;;;;;;;4994423;28;20109;-87
2023/08/28 05:33:18;;;;;;;10.45;9.02;;;;;;;;;;4977544;28;20054;-88
2023/08/28 05:35:45;;;;;;;11.52;9.00;;;;;;;;;;4977351;28;20052;-87
2023/08/28 05:38:12;;;;;;;11.07;8.38;;;;;;;;;;4977040;28;20085;-87
2023/08/28 05:40:40;;;;;;;5.65;5.15;;;;;;;;;;4976273;28;20324;-88
2023/08/28 05:43:07;;;;;;;7.40;5.30;;;;;;;;;;4976751;28;20167;-87
2023/08/28 05:45:34;;;;;;;5.28;4.88;;;;;;;;;;4994227;28;20539;-87
2023/08/28 05:48:02;;;;;;;4.43;4.13;;;;;;;;;;4977012;28;20132;-87
2023/08/28 05:50:29;;;;;;;25.52;16.42;;;;;;;;;;4994391;28;20054;-87
2023/08/28 05:52:58;;;;;;;41.50;26.75;;;;;;;;;;4976929;28;20046;-87
2023/08/28 05:55:28;;;;;;;18.17;13.38;;;;;;;;;;4977215;28;20056;-87
2023/08/28 05:57:55;;;;;;;23.13;12.93;;;;;;;;;;4994202;28;20121;-87
2023/08/28 06:00:23;;;;;;;40.28;28.50;;;;;;;;;;4993936;28;20078;-87
2023/08/28 06:02:50;;;;;;;13.93;11.05;;;;;;;;;;4994098;28;20050;-87
2023/08/28 06:05:18;;;;;;;10.98;9.07;;;;;;;;;;4994152;28;20054;-86
2023/08/28 06:07:46;;;;;;;6.15;5.60;;;;;;;;;;4977036;28;20096;-88
2023/08/28 06:10:19;;;;;;;5.13;4.50;;;;;;;;;;4976879;28;20050;-88
2023/08/28 06:12:47;;;;;;;4.60;4.30;;;;;;;;;;4993831;28;20054;-87
2023/08/28 06:15:17;;;;;;;4.05;3.83;;;;;;;;;;4993760;28;20053;-87
2023/08/28 06:17:44;;;;;;;4.55;3.78;;;;;;;;;;4993546;28;20046;-87
2023/08/28 06:20:11;;;;;;;3.75;3.55;;;;;;;;;;4976706;28;20057;-87
2023/08/28 06:22:39;;;;;;;4.82;4.43;;;;;;;;;;4976517;28;20101;-87
2023/08/28 06:25:08;;;;;;;3.97;3.67;;;;;;;;;;4993606;28;20050;-87
2023/08/28 06:27:35;;;;;;;4.40;3.80;;;;;;;;;;4978539;28;20134;-86
2023/08/28 06:30:06;;;;;;;3.88;3.67;;;;;;;;;;4998012;28;20548;-86
2023/08/28 06:32:33;;;;;;;16.20;4.13;;;;;;;;;;4997488;28;20097;-87
2023/08/28 06:35:01;;;;;;;3.80;3.50;;;;;;;;;;4980125;28;20111;-86
2023/08/28 06:37:28;;;;;;;3.20;3.03;;;;;;;;;;4980195;28;20549;-87
2023/08/28 06:39:55;;;;;;;2.80;2.70;;;;;;;;;;4997540;28;20122;-87
2023/08/28 06:42:23;;;;;;;6.60;2.97;;;;;;;;;;4979472;28;20086;-87
2023/08/28 06:44:50;;;;;;;11.20;4.05;;;;;;;;;;4996719;28;20167;-88
2023/08/28 06:47:17;;;;;;;7.82;3.10;;;;;;;;;;4996005;28;20092;-87
2023/08/28 06:49:45;;;;;;;5.57;3.00;;;;;;;;;;4996493;28;20050;-87
2023/08/28 06:52:12;;;;;;;4.25;2.45;;;;;;;;;;4997248;28;20134;-86
2023/08/28 06:54:39;;;;;;;3.42;2.15;;;;;;;;;;4997447;28;20050;-87
2023/08/28 06:57:09;;;;;;;3.80;2.30;;;;;;;;;;4997310;28;20047;-86
2023/08/28 06:59:37;;;;;;;2.72;2.22;;;;;;;;;;4997628;28;20081;-87
2023/08/28 07:02:04;;;;;;;2.35;2.25;;;;;;;;;;4997286;28;20114;-86
2023/08/28 07:04:31;;;;;;;2.40;2.30;;;;;;;;;;4996371;28;20073;-86
2023/08/28 07:06:59;;;;;;;3.00;1.98;;;;;;;;;;4996850;28;20054;-87
2023/08/28 07:09:26;;;;;;;2.10;2.00;;;;;;;;;;4997108;28;20069;-86
2023/08/28 07:11:54;;;;;;;6.38;2.33;;;;;;;;;;4995672;28;20050;-87
2023/08/28 07:14:21;;;;;;;2.70;1.70;;;;;;;;;;4995459;28;20050;-86
2023/08/28 07:16:48;;;;;;;1.55;1.45;;;;;;;;;;4995632;28;20046;-86
2023/08/28 07:19:18;;;;;;;2.05;1.58;;;;;;;;;;4995574;28;20050;-86
2023/08/28 07:21:45;;;;;;;1.73;1.63;;;;;;;;;;4995469;28;20388;-86
2023/08/28 07:24:12;;;;;;;1.90;1.90;;;;;;;;;;4996193;28;20070;-86
2023/08/28 07:26:40;;;;;;;2.38;1.58;;;;;;;;;;4995652;28;20407;-86
2023/08/28 07:29:07;;;;;;;1.75;1.65;;;;;;;;;;4995017;28;20046;-86
2023/08/28 07:31:35;;;;;;;2.72;1.58;;;;;;;;;;5002267;28;20050;-87
2023/08/28 07:34:04;;;;;;;1.42;1.33;;;;;;;;;;4999295;28;20046;-85
2023/08/28 07:36:31;;;;;;;1.70;1.60;;;;;;;;;;4999132;28;20053;-85
2023/08/28 07:39:01;;;;;;;1.60;1.23;;;;;;;;;;4995106;28;20054;-85
2023/08/28 07:41:28;;;;;;;1.48;1.38;;;;;;;;;;4994917;28;20046;-85
2023/08/28 07:43:55;;;;;;;1.35;1.20;;;;;;;;;;4994936;28;20567;-85
2023/08/28 07:46:23;;;;;;;1.63;1.33;;;;;;;;;;4995116;28;20120;-84
2023/08/28 07:48:50;;;;;;;1.20;1.10;;;;;;;;;;4996321;28;20050;-86
2023/08/28 07:51:17;;;;;;;3.67;1.30;;;;;;;;;;4995033;28;20125;-84
2023/08/28 07:53:44;;;;;;;6.13;1.52;;;;;;;;;;4995616;28;20050;-85
2023/08/28 07:56:11;;;;;;;1.83;1.30;;;;;;;;;;4994401;28;20054;-85
2023/08/28 07:58:39;;;;;;;2.40;1.40;;;;;;;;;;4994443;28;20074;-85
2023/08/28 08:01:09;;;;;;;2.05;1.73;;;;;;;;;;4994441;28;20054;-85
2023/08/28 08:03:36;;;;;;;1.50;1.40;;;;;;;;;;4994833;28;20062;-85
2023/08/28 08:09:12;;;;;;;1.60;1.50;;;;;;;;;;4995878;28;20461;-86
2023/08/28 08:11:39;;;;;;;3.88;1.63;;;;;;;;;;4996283;28;20047;-85
2023/08/28 08:14:07;;;;;;;4.90;1.70;;;;;;;;;;4995156;28;20054;-85
2023/08/28 08:16:35;;;;;;;5.15;1.70;;;;;;;;;;4995725;28;20050;-85
2023/08/28 08:19:02;;;;;;;7.45;1.50;;;;;;;;;;4994101;28;20046;-85
2023/08/28 08:21:29;;;;;;;4.78;2.30;;;;;;;;;;4994313;28;20055;-85
2023/08/28 08:23:59;;;;;;;3.10;1.65;;;;;;;;;;4995377;28;20042;-85
2023/08/28 08:26:26;;;;;;;6.70;1.98;;;;;;;;;;4994242;28;20054;-86
2023/08/28 08:28:54;;;;;;;3.35;2.03;;;;;;;;;;4994291;28;20101;-85
2023/08/28 08:31:21;;;;;;;3.97;1.73;;;;;;;;;;4993507;28;20121;-84
2023/08/28 08:33:50;;;;;;;5.28;2.45;;;;;;;;;;4993830;28;20105;-85
2023/08/28 08:36:18;;;;;;;3.63;1.70;;;;;;;;;;4993956;28;20050;-85
2023/08/28 08:38:45;;;;;;;4.65;1.85;;;;;;;;;;4994120;28;20050;-86
2023/08/28 08:41:12;;;;;;;3.92;1.65;;;;;;;;;;4994022;28;20054;-85
2023/08/28 08:43:40;;;;;;;2.45;2.13;;;;;;;;;;4993969;28;20051;-85
2023/08/28 08:46:07;;;;;;;4.05;2.10;;;;;;;;;;4994832;28;20058;-85
2023/08/28 08:48:37;;;;;;;2.00;1.85;;;;;;;;;;4993635;28;20093;-85
2023/08/28 08:51:05;;;;;;;2.97;1.50;;;;;;;;;;4993411;28;20120;-86
2023/08/28 08:53:38;;;;;;;1.70;1.60;;;;;;;;;;4993834;28;20470;-85
2023/08/28 08:56:06;;;;;;;2.45;1.70;;;;;;;;;;4994559;28;20055;-85
2023/08/28 08:58:33;;;;;;;3.20;1.65;;;;;;;;;;4993391;28;20054;-86
2023/08/28 09:01:02;;;;;;;3.70;2.05;;;;;;;;;;4993590;28;20109;-84
2023/08/28 09:03:30;;;;;;;3.60;3.30;;;;;;;;;;4993677;28;20159;-86
2023/08/28 09:05:59;;;;;;;3.22;1.85;;;;;;;;;;4993544;28;20050;-85
2023/08/28 09:08:28;;;;;;;2.55;2.00;;;;;;;;;;4994674;28;20438;-85
2023/08/28 09:11:00;;;;;;;2.63;2.35;;;;;;;;;;4993402;28;20066;-85
2023/08/28 09:13:27;;;;;;;2.42;2.25;;;;;;;;;;4994430;28;20062;-86
2023/08/28 09:15:55;;;;;;;5.07;3.20;;;;;;;;;;4993355;28;20470;-86
2023/08/28 09:18:25;;;;;;;3.20;2.90;;;;;;;;;;4993221;28;20054;-85
2023/08/28 09:21:12;;;;;;;5.43;4.38;;;;;;;;;;4993215;28;20046;-85
2023/08/28 09:23:50;;;;;;;4.97;3.25;;;;;;;;;;4993392;28;20049;-85
2023/08/28 09:26:22;;;;;;;3.28;3.08;;;;;;;;;;4993282;28;20490;-83
2023/08/28 09:28:59;;;;;;;4.40;3.88;;;;;;;;;;4991907;28;20061;-85
2023/08/28 09:31:40;;;;;;;5.93;4.22;;;;;;;;;;4993249;28;20046;-85
2023/08/28 09:34:07;;;;;;;4.18;3.88;;;;;;;;;;4992688;28;20050;-85
2023/08/28 09:36:37;;;;;;;5.82;4.00;;;;;;;;;;4992953;28;20093;-84
2023/08/28 09:39:08;;;;;;;4.40;3.30;;;;;;;;;;4992564;28;20050;-85
2023/08/28 09:41:46;;;;;;;5.85;3.97;;;;;;;;;;4992794;28;20458;-85
2023/08/28 09:44:21;;;;;;;4.10;3.88;;;;;;;;;;4996141;28;20081;-84
2023/08/28 09:46:53;;;;;;;3.70;3.40;;;;;;;;;;5013282;28;20112;-85
2023/08/28 09:49:20;;;;;;;3.90;3.47;;;;;;;;;;4996243;28;20411;-85
2023/08/28 09:51:49;;;;;;;4.15;3.75;;;;;;;;;;5013674;28;20053;-85
2023/08/28 09:54:17;;;;;;;4.53;4.10;;;;;;;;;;5013166;28;20185;-84
2023/08/28 09:56:44;;;;;;;3.80;3.45;;;;;;;;;;4995647;28;20046;-85
2023/08/28 09:59:13;;;;;;;3.80;3.58;;;;;;;;;;4995915;28;20066;-84
2023/08/28 10:01:41;;;;;;;3.50;3.30;;;;;;;;;;4995697;28;20042;-85
2023/08/28 10:04:09;;;;;;;4.07;3.65;;;;;;;;;;5013380;28;20062;-86
2023/08/28 10:06:39;;;;;;;4.32;3.55;;;;;;;;;;4996021;28;20046;-85
2023/08/28 10:09:12;;;;;;;3.20;3.00;;;;;;;;;;4996051;28;20084;-85
2023/08/28 10:11:40;;;;;;;3.90;3.70;;;;;;;;;;4995880;28;20180;-85
2023/08/28 10:14:07;;;;;;;7.38;3.42;;;;;;;;;;5013174;28;20046;-84
2023/08/28 10:16:36;;;;;;;3.70;3.42;;;;;;;;;;4996030;28;20560;-84
2023/08/28 10:19:08;;;;;;;4.00;3.60;;;;;;;;;;4995929;28;20053;-85
2023/08/28 10:21:36;;;;;;;3.80;3.50;;;;;;;;;;4996177;28;20046;-85
2023/08/28 10:24:04;;;;;;;4.13;3.78;;;;;;;;;;4995443;28;20073;-85
2023/08/28 10:26:31;;;;;;;3.53;3.22;;;;;;;;;;4995924;28;20045;-85
2023/08/28 10:29:00;;;;;;;6.47;4.15;;;;;;;;;;4995601;28;20108;-84
2023/08/28 10:31:29;;;;;;;4.68;3.90;;;;;;;;;;5011885;28;20050;-84
2023/08/28 10:33:57;;;;;;;5.72;3.78;;;;;;;;;;5012907;28;20482;-85
2023/08/28 10:36:25;;;;;;;3.90;3.60;;;;;;;;;;4995506;28;20077;-84
2023/08/28 10:38:56;;;;;;;4.07;3.72;;;;;;;;;;4995825;28;20046;-84
2023/08/28 10:41:27;;;;;;;4.45;4.15;;;;;;;;;;4996135;28;20042;-84
2023/08/28 10:43:55;;;;;;;6.78;3.35;;;;;;;;;;4995308;28;20104;-85
2023/08/28 10:46:27;;;;;;;5.82;3.85;;;;;;;;;;4995332;28;20050;-85
2023/08/28 10:48:57;;;;;;;3.78;3.47;;;;;;;;;;4995225;28;20049;-84
2023/08/28 10:51:30;;;;;;;5.03;4.60;;;;;;;;;;4995353;28;20056;-84
2023/08/28 10:54:01;;;;;;;5.18;4.70;;;;;;;;;;5012784;28;20050;-85
2023/08/28 10:56:32;;;;;;;4.68;4.00;;;;;;;;;;5013205;28;20073;-85
2023/08/28 10:59:18;;;;;;;5.18;4.78;;;;;;;;;;4995736;28;20049;-85
2023/08/28 11:01:56;;;;;;;4.57;4.10;;;;;;;;;;4996905;28;20050;-84
2023/08/28 11:04:35;;;;;;;4.03;3.72;;;;;;;;;;5032153;28;20046;-85
2023/08/28 11:07:04;;;;;;;4.75;4.38;;;;;;;;;;4998491;28;20477;-86
2023/08/28 11:09:32;;;;;;;4.45;4.03;;;;;;;;;;4995621;28;20074;-85
2023/08/28 11:11:59;;;;;;;4.60;4.28;;;;;;;;;;4995117;28;20057;-85
2023/08/28 11:14:33;;;;;;;4.53;4.13;;;;;;;;;;5016347;28;20056;-85
2023/08/28 11:17:15;;;;;;;5.07;4.63;;;;;;;;;;4999499;28;20092;-85
2023/08/28 11:19:54;;;;;;;4.80;4.30;;;;;;;;;;4999099;28;20050;-86
2023/08/28 11:22:39;;;;;;;4.72;4.35;;;;;;;;;;5016321;28;20045;-85
2023/08/28 11:25:10;;;;;;;4.38;3.25;;;;;;;;;;4998774;28;20557;-84
2023/08/28 11:27:38;;;;;;;4.82;4.35;;;;;;;;;;4999055;28;20418;-85
2023/08/28 11:30:06;;;;;;;4.25;3.88;;;;;;;;;;5016350;28;20057;-84
2023/08/28 11:32:37;;;;;;;4.65;4.35;;;;;;;;;;5015932;28;20049;-85
2023/08/28 11:35:05;;;;;;;5.22;4.82;;;;;;;;;;4998625;28;20050;-86
2023/08/28 11:37:33;;;;;;;4.72;4.40;;;;;;;;;;5016059;28;20057;-85
2023/08/28 11:40:01;;;;;;;5.13;4.72;;;;;;;;;;4998810;28;20089;-85
2023/08/28 11:42:31;;;;;;;7.15;4.63;;;;;;;;;;4998563;28;20054;-86
2023/08/28 11:44:58;;;;;;;4.20;3.97;;;;;;;;;;5015790;28;20058;-85
2023/08/28 11:47:26;;;;;;;4.50;4.20;;;;;;;;;;4998436;28;20049;-84
2023/08/28 11:49:54;;;;;;;5.65;5.15;;;;;;;;;;4998387;28;20074;-84
2023/08/28 11:52:22;;;;;;;6.15;5.55;;;;;;;;;;5015476;28;20042;-85
2023/08/28 11:54:50;;;;;;;5.38;4.97;;;;;;;;;;4998335;28;20054;-84
2023/08/28 11:57:18;;;;;;;4.45;4.15;;;;;;;;;;5015874;28;20046;-85
2023/08/28 11:59:46;;;;;;;5.07;4.57;;;;;;;;;;4998154;28;20104;-85
2023/08/28 12:02:13;;;;;;;10.10;5.30;;;;;;;;;;4998044;28;20046;-85
2023/08/28 12:04:41;;;;;;;6.07;5.30;;;;;;;;;;5015795;28;20082;-85
2023/08/28 12:07:18;;;;;;;6.63;4.88;;;;;;;;;;4998183;28;20104;-84
2023/08/28 12:09:46;;;;;;;5.25;4.63;;;;;;;;;;4998142;28;20108;-86
2023/08/28 12:12:14;;;;;;;5.18;4.60;;;;;;;;;;5015609;28;20069;-85
2023/08/28 12:14:43;;;;;;;5.55;4.07;;;;;;;;;;4998193;28;20042;-85
2023/08/28 12:17:14;;;;;;;3.58;3.13;;;;;;;;;;5015257;28;20486;-86
2023/08/28 12:19:41;;;;;;;3.58;2.70;;;;;;;;;;4997782;28;20050;-85
2023/08/28 12:22:10;;;;;;;5.53;2.63;;;;;;;;;;4998176;28;20585;-85
2023/08/28 12:24:41;;;;;;;1.80;1.70;;;;;;;;;;4997881;28;20084;-85
2023/08/28 12:27:09;;;;;;;1.40;1.30;;;;;;;;;;4997875;28;20132;-85
2023/08/28 12:29:36;;;;;;;3.38;1.10;;;;;;;;;;4997578;28;20521;-86
2023/08/28 12:32:06;;;;;;;1.50;1.40;;;;;;;;;;4997777;28;20457;-85
2023/08/28 12:34:34;;;;;;;3.33;1.75;;;;;;;;;;4997751;28;20061;-86
2023/08/28 12:37:05;;;;;;;3.03;1.75;;;;;;;;;;5015123;28;20142;-86
2023/08/28 12:39:32;;;;;;;3.72;1.77;;;;;;;;;;4998002;28;20068;-85
2023/08/28 12:42:00;;;;;;;3.30;1.50;;;;;;;;;;5014851;28;20053;-85
2023/08/28 12:44:28;;;;;;;2.17;1.55;;;;;;;;;;4997675;28;20058;-84
2023/08/28 12:46:56;;;;;;;3.33;1.35;;;;;;;;;;4997957;28;20487;-87
2023/08/28 12:49:23;;;;;;;2.45;1.30;;;;;;;;;;4997922;28;20049;-86
2023/08/28 12:51:51;;;;;;;2.47;1.58;;;;;;;;;;5015029;28;20053;-87
2023/08/28 12:54:21;;;;;;;5.93;1.40;;;;;;;;;;4997602;28;20123;-87
2023/08/28 12:56:49;;;;;;;1.50;1.40;;;;;;;;;;4997782;28;20130;-86
2023/08/28 12:59:17;;;;;;;2.85;1.10;;;;;;;;;;4997563;28;20054;-86
2023/08/28 13:01:44;;;;;;;1.30;1.20;;;;;;;;;;5014830;28;20061;-87
2023/08/28 13:04:12;;;;;;;0.90;0.90;;;;;;;;;;4997433;28;20549;-86
2023/08/28 13:06:39;;;;;;;0.88;0.80;;;;;;;;;;4997755;28;20462;-86
2023/08/28 13:09:07;;;;;;;3.58;1.02;;;;;;;;;;4998030;28;20046;-90
2023/08/28 13:11:34;;;;;;;3.58;1.10;;;;;;;;;;4997965;28;20073;-89
2023/08/28 13:14:03;;;;;;;2.97;0.90;;;;;;;;;;4997409;28;20092;-87
2023/08/28 13:16:30;;;;;;;2.67;1.10;;;;;;;;;;4997600;28;20049;-86
2023/08/28 13:19:01;;;;;;;11.05;1.67;;;;;;;;;;5014036;28;20521;-85
2023/08/28 13:21:30;;;;;;;2.67;1.38;;;;;;;;;;5014584;28;20065;-88
2023/08/28 13:23:57;;;;;;;0.90;0.90;;;;;;;;;;5014713;28;20054;-88
2023/08/28 13:26:25;;;;;;;2.20;1.27;;;;;;;;;;5014307;28;20518;-87
2023/08/28 13:28:52;;;;;;;1.25;1.15;;;;;;;;;;5014314;28;20457;-87
2023/08/28 13:31:19;;;;;;;1.52;1.23;;;;;;;;;;4996932;28;20570;-87
2023/08/28 13:33:48;;;;;;;1.35;1.20;;;;;;;;;;4997381;28;20049;-88
2023/08/28 13:36:16;;;;;;;4.30;1.50;;;;;;;;;;4996736;28;20478;-88
2023/08/28 13:38:43;;;;;;;1.20;1.10;;;;;;;;;;5014454;28;20049;-87
2023/08/28 13:41:10;;;;;;;3.60;1.38;;;;;;;;;;4996782;28;20049;-87
2023/08/28 13:43:38;;;;;;;4.22;1.10;;;;;;;;;;5014214;28;20050;-87
2023/08/28 13:46:05;;;;;;;2.47;1.33;;;;;;;;;;4996718;28;20422;-86
2023/08/28 13:48:35;;;;;;;4.18;1.02;;;;;;;;;;5015049;28;20057;-87
2023/08/28 13:51:02;;;;;;;3.47;1.27;;;;;;;;;;5024537;28;20057;-87
2023/08/28 13:53:31;;;;;;;1.58;1.08;;;;;;;;;;5011919;28;20050;-88
2023/08/28 13:55:58;;;;;;;2.70;1.05;;;;;;;;;;4999599;28;20046;-86
2023/08/28 13:58:26;;;;;;;2.33;1.15;;;;;;;;;;5014784;28;20049;-87
2023/08/28 14:00:59;;;;;;;2.08;1.20;;;;;;;;;;4996962;28;20045;-88
2023/08/28 14:03:27;;;;;;;1.23;1.13;;;;;;;;;;4996968;28;20058;-87
2023/08/28 14:05:58;;;;;;;0.98;0.80;;;;;;;;;;4996573;28;20474;-88
2023/08/28 14:08:26;;;;;;;1.20;0.95;;;;;;;;;;4996778;28;20053;-88
2023/08/28 14:10:53;;;;;;;0.90;0.90;;;;;;;;;;5013807;28;20098;-88
2023/08/28 14:13:21;;;;;;;3.90;1.00;;;;;;;;;;5013792;28;20053;-88
2023/08/28 14:15:49;;;;;;;5.97;1.58;;;;;;;;;;5013361;28;20554;-87
2023/08/28 14:18:19;;;;;;;0.82;0.82;;;;;;;;;;5013146;28;20046;-87
2023/08/28 14:20:51;;;;;;;2.63;1.10;;;;;;;;;;5013944;28;20086;-88
2023/08/28 14:23:19;;;;;;;1.20;0.82;;;;;;;;;;4996596;28;20042;-87
2023/08/28 14:25:50;;;;;;;2.35;0.77;;;;;;;;;;4996136;28;20050;-87
2023/08/28 14:28:18;;;;;;;1.58;1.10;;;;;;;;;;4996561;28;20046;-87
2023/08/28 14:30:49;;;;;;;7.07;1.08;;;;;;;;;;4996920;28;20052;-88
2023/08/28 14:33:20;;;;;;;1.75;1.27;;;;;;;;;;4996462;28;20108;-87
2023/08/28 14:35:47;;;;;;;2.15;0.77;;;;;;;;;;4996267;28;20081;-88
2023/08/28 14:38:15;;;;;;;2.65;0.90;;;;;;;;;;5013371;28;20046;-87
2023/08/28 14:40:42;;;;;;;1.83;0.75;;;;;;;;;;4996288;28;20058;-87
2023/08/28 14:43:13;;;;;;;0.80;0.60;;;;;;;;;;5013408;28;20109;-88
2023/08/28 14:45:41;;;;;;;1.10;0.77;;;;;;;;;;4996249;28;20104;-88
2023/08/28 14:48:08;;;;;;;2.85;0.70;;;;;;;;;;5015754;28;20085;-88
2023/08/28 14:50:36;;;;;;;1.27;0.77;;;;;;;;;;5000319;28;20049;-88
2023/08/28 14:53:04;;;;;;;1.52;0.80;;;;;;;;;;4999923;28;20064;-88